Time;durP1;ratioP1;P1;durP2;ratioP2;P2;SDS_P1;SDS_P2;PMS_P1;PMS_P2;Temp;Humidity;BMP_temperature;BMP_pressure;BME280_temperature;BME280_humidity;BME280_pressure;Samples;Min_cycle;Max_cycle;Signal;HPM_P1;HPM_P2
2023/04/05 00:00:55;;;;;;;;;;;;;;;-0.69;67.37;100972.45;110477;1272;22406;-60
2023/04/05 00:03:27;;;;;;;49.70;16.80;;;;;;;-0.70;67.54;100967.74;110494;1267;22985;-58
2023/04/05 00:05:59;;;;;;;49.20;19.80;;;;;;;-0.70;67.60;100965.46;110521;1274;22335;-59
2023/04/05 00:08:30;;;;;;;51.10;18.10;;;;;;;-0.68;67.55;100957.48;110503;1272;22230;-60
2023/04/05 00:11:00;;;;;;;60.00;21.10;;;;;;;-0.65;67.72;100960.46;110474;1267;23268;-58
2023/04/05 00:13:32;;;;;;;68.20;28.40;;;;;;;-0.65;67.79;100957.89;110495;1273;22993;-60
2023/04/05 00:16:02;;;;;;;71.30;26.90;;;;;;;-0.64;67.88;100960.16;110486;1272;22206;-59
2023/04/05 00:18:34;;;;;;;72.40;26.80;;;;;;;-0.63;67.88;100960.23;110501;1270;22408;-58
2023/04/05 00:21:05;;;;;;;72.30;27.50;;;;;;;-0.64;67.80;100960.55;110488;1267;23800;-59
2023/04/05 00:23:38;;;;;;;71.60;29.50;;;;;;;-0.67;67.76;100960.92;110495;1267;22897;-58
2023/04/05 00:26:09;;;;;;;64.90;26.30;;;;;;;-0.69;67.93;100961.48;108115;1273;22659;-58
2023/04/05 00:28:40;;;;;;;63.00;27.40;;;;;;;-0.73;67.67;100957.23;106958;1273;22537;-58
2023/04/05 00:31:11;;;;;;;58.50;22.90;;;;;;;-0.76;67.68;100954.15;106991;1263;25418;-59
2023/04/05 00:33:42;;;;;;;55.60;22.80;;;;;;;-0.80;67.57;100954.77;106933;1273;24900;-59
2023/04/05 00:36:15;;;;;;;56.70;23.40;;;;;;;-0.84;67.75;100952.55;106922;1267;25505;-57
2023/04/05 00:38:48;;;;;;;48.10;18.60;;;;;;;-0.87;67.59;100949.26;110527;1267;22527;-60
2023/04/05 00:41:18;;;;;;;64.10;23.30;;;;;;;-0.94;67.61;100949.14;110491;1261;22249;-59
2023/04/05 00:43:49;;;;;;;55.30;21.30;;;;;;;-1.01;67.84;100955.22;110503;1272;23513;-60
2023/04/05 00:46:20;;;;;;;51.20;19.10;;;;;;;-1.05;68.06;100956.36;110490;1267;22603;-59
2023/04/05 00:48:51;;;;;;;50.50;20.20;;;;;;;-1.04;67.99;100955.13;110465;1264;22161;-58
2023/04/05 00:51:23;;;;;;;55.60;18.70;;;;;;;-1.06;67.79;100958.79;110467;1260;22385;-59
2023/04/05 00:53:54;;;;;;;51.50;17.30;;;;;;;-1.08;67.87;100953.06;110514;1275;22873;-61
2023/04/05 00:56:25;;;;;;;40.10;13.50;;;;;;;-1.13;67.86;100951.77;110498;1267;22193;-60
2023/04/05 00:58:56;;;;;;;40.10;14.00;;;;;;;-1.16;67.86;100949.71;110482;1267;22375;-60
2023/04/05 01:01:27;;;;;;;42.20;12.40;;;;;;;-1.18;67.92;100942.81;110553;1264;23226;-60
2023/04/05 01:04:01;;;;;;;35.20;12.70;;;;;;;-1.20;67.91;100940.23;110483;1261;22207;-60
2023/04/05 01:06:53;;;;;;;36.60;11.30;;;;;;;-1.23;68.10;100937.94;110405;1269;22365;-60
2023/04/05 01:09:34;;;;;;;39.90;11.10;;;;;;;-1.27;68.37;100936.42;110392;1269;22198;-59
2023/04/05 01:12:09;;;;;;;34.20;11.40;;;;;;;-1.32;68.39;100934.98;110358;1269;22503;-60
2023/04/05 01:14:48;;;;;;;34.00;10.90;;;;;;;-1.34;68.39;100931.53;110428;1269;22184;-60
2023/04/05 01:17:21;;;;;;;36.60;11.00;;;;;;;-1.37;68.42;100932.54;110349;1264;22996;-58
2023/04/05 01:19:57;;;;;;;30.70;10.60;;;;;;;-1.40;68.50;100929.85;110341;1270;22359;-60
2023/04/05 01:23:06;;;;;;;32.20;10.50;;;;;;;-1.46;68.61;100928.88;110395;1270;22208;-58
2023/04/05 01:26:23;;;;;;;29.70;9.90;;;;;;;-1.52;68.71;100931.24;108327;1272;22523;-58
2023/04/05 01:29:29;;;;;;;30.30;9.20;;;;;;;-1.60;68.90;100927.75;106421;1277;22657;-57
2023/04/05 01:32:04;;;;;;;31.90;10.40;;;;;;;-1.69;69.15;100929.34;109931;1273;22261;-58
2023/04/05 01:34:41;;;;;;;31.80;11.60;;;;;;;-1.74;69.08;100920.93;106849;1276;25655;-57
2023/04/05 01:37:15;;;;;;;34.40;10.70;;;;;;;-1.76;69.08;100924.52;109113;1279;22521;-57
2023/04/05 01:39:47;;;;;;;32.30;11.00;;;;;;;-1.77;69.16;100917.63;109972;1277;22292;-58
2023/04/05 01:42:23;;;;;;;33.90;11.00;;;;;;;-1.77;69.19;100916.29;109964;1267;23190;-59
2023/04/05 01:44:55;;;;;;;38.90;11.90;;;;;;;-1.76;69.14;100916.30;109949;1281;22348;-60
2023/04/05 01:47:26;;;;;;;32.60;11.60;;;;;;;-1.74;69.16;100915.84;109989;1277;22210;-58
2023/04/05 01:49:56;;;;;;;35.10;11.80;;;;;;;-1.75;69.17;100913.57;109969;1271;22606;-60
2023/04/05 01:52:27;;;;;;;29.50;10.20;;;;;;;-1.79;69.15;100911.83;109951;1275;22300;-58
2023/04/05 01:54:58;;;;;;;36.40;12.10;;;;;;;-1.83;69.48;100906.39;109949;1270;22243;-60
2023/04/05 01:57:29;;;;;;;34.50;10.80;;;;;;;-1.87;69.57;100912.30;110261;1270;22249;-60
2023/04/05 02:00:00;;;;;;;45.20;13.70;;;;;;;-1.92;69.81;100912.02;110418;1270;22158;-61
2023/04/05 02:02:31;;;;;;;32.30;11.50;;;;;;;-1.95;69.82;100911.45;110357;1269;22434;-57
2023/04/05 02:05:02;;;;;;;32.00;11.10;;;;;;;-1.97;69.95;100914.95;110431;1266;22986;-60
2023/04/05 02:07:33;;;;;;;38.50;11.70;;;;;;;-2.02;70.16;100916.23;110443;1274;22401;-58
2023/04/05 02:10:04;;;;;;;41.10;12.10;;;;;;;-2.05;70.27;100914.64;110476;1268;23275;-58
2023/04/05 02:12:35;;;;;;;38.70;10.30;;;;;;;-2.07;70.40;100911.04;110463;1267;23124;-58
2023/04/05 02:15:07;;;;;;;35.10;11.10;;;;;;;-2.10;70.68;100905.46;110461;1267;22540;-59
2023/04/05 02:17:38;;;;;;;32.30;11.00;;;;;;;-2.12;70.82;100902.55;110498;1260;22210;-59
2023/04/05 02:20:13;;;;;;;37.60;10.70;;;;;;;-2.15;70.95;100901.67;110485;1267;22243;-59
2023/04/05 02:22:44;;;;;;;36.20;10.90;;;;;;;-2.18;71.08;100896.02;110484;1261;22302;-58
2023/04/05 02:25:15;;;;;;;43.00;12.50;;;;;;;-2.20;71.14;100897.88;110482;1267;22248;-57
2023/04/05 02:27:46;;;;;;;38.90;11.50;;;;;;;-2.21;71.26;100892.46;110464;1267;22185;-58
2023/04/05 02:30:17;;;;;;;36.20;12.70;;;;;;;-2.23;71.19;100886.11;110503;1267;22220;-58
2023/04/05 02:32:47;;;;;;;39.30;12.60;;;;;;;-2.21;71.11;100885.73;110540;1267;22254;-58
2023/04/05 02:35:20;;;;;;;37.00;12.10;;;;;;;-2.19;70.97;100882.89;110502;1267;22174;-57
2023/04/05 02:37:50;;;;;;;38.50;12.00;;;;;;;-2.18;70.81;100885.23;110479;1267;22295;-59
2023/04/05 02:40:22;;;;;;;40.50;11.40;;;;;;;-2.15;70.68;100885.41;110451;1267;22224;-59
2023/04/05 02:42:53;;;;;;;34.40;11.10;;;;;;;-2.14;70.69;100881.50;110508;1267;22206;-59
2023/04/05 02:45:23;;;;;;;39.10;12.60;;;;;;;-2.16;70.61;100875.64;110510;1259;22351;-57
2023/04/05 02:47:54;;;;;;;38.60;10.70;;;;;;;-2.14;70.52;100871.80;110489;1275;22948;-56
2023/04/05 02:50:25;;;;;;;32.00;11.40;;;;;;;-2.16;70.52;100864.45;110441;1273;22350;-60
2023/04/05 02:52:56;;;;;;;40.90;11.50;;;;;;;-2.18;70.71;100869.21;110501;1264;22335;-58
2023/04/05 02:55:28;;;;;;;39.20;11.50;;;;;;;-2.19;70.62;100874.27;110543;1263;22337;-60
2023/04/05 02:58:00;;;;;;;37.40;11.80;;;;;;;-2.21;70.72;100879.03;110446;1268;22631;-59
2023/04/05 03:00:31;;;;;;;35.00;11.30;;;;;;;-2.20;70.61;100879.20;110476;1263;22492;-58
2023/04/05 03:03:02;;;;;;;39.10;12.00;;;;;;;-2.21;70.79;100872.52;110499;1260;22524;-61
2023/04/05 03:05:33;;;;;;;31.60;10.50;;;;;;;-2.23;70.66;100872.52;110518;1274;22169;-58
2023/04/05 03:08:04;;;;;;;32.50;10.20;;;;;;;-2.24;70.74;100872.36;110502;1272;22284;-59
2023/04/05 03:10:37;;;;;;;34.40;10.20;;;;;;;-2.25;70.53;100872.89;110485;1267;22318;-58
2023/04/05 03:13:08;;;;;;;39.50;11.80;;;;;;;-2.27;70.65;100870.21;110469;1269;23626;-60
2023/04/05 03:15:39;;;;;;;28.90;9.30;;;;;;;-2.28;70.61;100867.87;110480;1267;23035;-57
2023/04/05 03:18:10;;;;;;;35.20;11.70;;;;;;;-2.28;70.71;100861.52;110470;1267;22523;-58
2023/04/05 03:20:41;;;;;;;32.40;10.40;;;;;;;-2.27;70.74;100863.02;110485;1267;22358;-59
2023/04/05 03:23:12;;;;;;;35.80;10.20;;;;;;;-2.28;70.75;100862.16;110533;1267;22408;-59
2023/04/05 03:25:43;;;;;;;36.00;10.30;;;;;;;-2.30;70.77;100858.86;110484;1267;22297;-60
2023/04/05 03:28:14;;;;;;;31.60;11.30;;;;;;;-2.30;70.78;100857.70;110496;1267;22228;-59
2023/04/05 03:30:45;;;;;;;34.80;10.50;;;;;;;-2.31;70.75;100860.96;108167;1275;26031;-60
2023/04/05 03:33:16;;;;;;;32.90;10.30;;;;;;;-2.34;70.78;100858.13;110451;1260;22253;-58
2023/04/05 03:35:47;;;;;;;28.80;9.70;;;;;;;-2.35;70.86;100860.22;110534;1268;22253;-60
2023/04/05 03:38:18;;;;;;;29.50;9.40;;;;;;;-2.36;70.99;100859.05;110489;1262;22181;-59
2023/04/05 03:40:49;;;;;;;32.70;10.10;;;;;;;-2.37;71.00;100861.15;110141;1267;22728;-57
2023/04/05 03:43:20;;;;;;;30.60;9.00;;;;;;;-2.37;71.03;100859.58;106997;1275;24176;-57
2023/04/05 03:45:51;;;;;;;30.50;9.30;;;;;;;-2.36;71.13;100859.98;110407;1263;22320;-59
2023/04/05 03:48:21;;;;;;;33.90;9.60;;;;;;;-2.38;71.17;100858.02;110469;1267;22481;-62
2023/04/05 03:50:52;;;;;;;35.20;10.00;;;;;;;-2.40;71.08;100858.77;110498;1274;22203;-58
2023/04/05 03:53:23;;;;;;;34.80;9.90;;;;;;;-2.39;71.15;100864.71;110516;1260;23245;-58
2023/04/05 03:55:54;;;;;;;34.40;9.90;;;;;;;-2.40;71.07;100865.95;110496;1267;22197;-61
2023/04/05 03:58:27;;;;;;;36.80;10.80;;;;;;;-2.41;70.93;100860.70;110457;1267;22321;-60
2023/04/05 04:00:57;;;;;;;33.90;9.60;;;;;;;-2.42;71.09;100858.45;110453;1267;22313;-61
2023/04/05 04:03:29;;;;;;;30.60;9.10;;;;;;;-2.42;71.11;100858.59;110502;1267;22273;-61
2023/04/05 04:06:01;;;;;;;31.10;8.70;;;;;;;-2.47;70.89;100861.59;107348;1260;22750;-59
2023/04/05 04:08:31;;;;;;;29.60;11.20;;;;;;;-2.50;71.13;100873.35;110487;1259;22192;-61
2023/04/05 04:11:02;;;;;;;31.90;10.40;;;;;;;-2.50;71.13;100874.38;110421;1267;22256;-60
2023/04/05 04:13:33;;;;;;;32.60;10.30;;;;;;;-2.51;71.16;100873.52;110495;1259;22239;-60
2023/04/05 04:16:04;;;;;;;30.50;9.60;;;;;;;-2.51;71.04;100873.52;110468;1269;22295;-58
2023/04/05 04:18:35;;;;;;;31.90;10.70;;;;;;;-2.55;71.15;100875.59;109198;1272;25754;-58
2023/04/05 04:21:06;;;;;;;29.90;10.20;;;;;;;-2.57;71.32;100877.69;106934;1275;23187;-58
2023/04/05 04:23:37;;;;;;;33.60;9.70;;;;;;;-2.58;71.23;100878.52;110475;1259;22304;-58
2023/04/05 04:26:10;;;;;;;31.50;8.80;;;;;;;-2.58;71.32;100881.64;110480;1267;23191;-59
2023/04/05 04:28:42;;;;;;;32.40;10.10;;;;;;;-2.57;71.41;100880.87;110448;1259;22256;-60
2023/04/05 04:31:15;;;;;;;31.30;10.30;;;;;;;-2.58;71.37;100880.46;110452;1263;22342;-58
2023/04/05 04:33:46;;;;;;;28.50;8.80;;;;;;;-2.57;71.35;100887.13;110448;1269;23361;-60
2023/04/05 04:36:33;;;;;;;30.60;10.00;;;;;;;-2.55;71.48;100886.58;110453;1267;22250;-61
2023/04/05 04:39:05;;;;;;;33.30;10.60;;;;;;;-2.53;71.41;100891.08;110462;1267;22521;-66
2023/04/05 04:41:37;;;;;;;40.00;11.40;;;;;;;-2.52;71.46;100894.52;110463;1267;23124;-60
2023/04/05 04:44:13;;;;;;;35.10;13.40;;;;;;;-2.54;71.52;100895.42;110456;1256;22233;-60
2023/04/05 04:46:44;;;;;;;38.90;13.20;;;;;;;-2.56;71.67;100899.78;110423;1259;22213;-61
2023/04/05 04:49:16;;;;;;;41.80;13.80;;;;;;;-2.57;71.83;100903.29;110450;1259;23404;-60
2023/04/05 04:51:46;;;;;;;37.60;13.80;;;;;;;-2.59;71.96;100897.48;110434;1259;22321;-60
2023/04/05 04:54:19;;;;;;;38.90;13.10;;;;;;;-2.60;71.96;100897.94;110486;1260;22212;-60
2023/04/05 04:56:50;;;;;;;41.90;14.80;;;;;;;-2.61;72.10;100894.33;110441;1275;22385;-59
2023/04/05 04:59:21;;;;;;;42.00;14.90;;;;;;;-2.61;72.42;100893.87;110421;1267;23210;-61
2023/04/05 05:01:51;;;;;;;38.70;13.50;;;;;;;-2.60;72.52;100894.57;110493;1263;22310;-60
2023/04/05 05:04:23;;;;;;;45.50;14.90;;;;;;;-2.56;72.45;100892.69;110447;1264;22451;-61
2023/04/05 05:06:54;;;;;;;38.50;13.00;;;;;;;-2.52;72.40;100898.81;110380;1259;22422;-62
2023/04/05 05:09:25;;;;;;;41.90;11.80;;;;;;;-2.48;72.49;100899.79;110484;1259;23186;-60
2023/04/05 05:11:58;;;;;;;34.30;13.40;;;;;;;-2.46;72.62;100902.23;110443;1274;22279;-62
2023/04/05 05:14:29;;;;;;;37.80;11.80;;;;;;;-2.44;72.72;100900.06;110448;1274;22255;-61
2023/04/05 05:16:59;;;;;;;36.80;11.60;;;;;;;-2.40;73.23;100904.77;110443;1267;22432;-61
2023/04/05 05:19:30;;;;;;;40.40;13.50;;;;;;;-2.37;73.07;100904.81;110450;1271;22416;-59
2023/04/05 05:22:01;;;;;;;36.40;13.20;;;;;;;-2.32;72.99;100905.33;110461;1251;24007;-61
2023/04/05 05:24:32;;;;;;;38.70;12.60;;;;;;;-2.27;73.23;100904.99;109858;1265;25722;-60
2023/04/05 05:27:02;;;;;;;37.40;13.20;;;;;;;-2.23;73.22;100908.54;106597;1253;22729;-59
2023/04/05 05:29:33;;;;;;;42.60;13.50;;;;;;;-2.19;73.25;100907.73;106702;1274;22648;-60
2023/04/05 05:32:06;;;;;;;37.40;13.40;;;;;;;-2.13;73.49;100911.84;106778;1267;24242;-59
2023/04/05 05:34:37;;;;;;;44.00;15.60;;;;;;;-2.08;73.46;100913.29;106761;1267;26904;-59
2023/04/05 05:37:08;;;;;;;39.50;13.70;;;;;;;-2.03;73.84;100910.98;106657;1272;24267;-60
2023/04/05 05:39:39;;;;;;;36.00;12.10;;;;;;;-1.99;74.18;100912.90;108442;1252;24401;-59
2023/04/05 05:42:10;;;;;;;37.40;12.70;;;;;;;-1.94;74.58;100913.80;107041;1267;22666;-58
2023/04/05 05:44:41;;;;;;;34.10;13.30;;;;;;;-1.90;74.81;100913.99;106740;1274;22544;-55
2023/04/05 05:47:12;;;;;;;38.10;12.10;;;;;;;-1.86;74.98;100913.48;106728;1259;22689;-59
2023/04/05 05:49:43;;;;;;;35.50;12.90;;;;;;;-1.80;75.11;100913.92;110454;1267;22253;-59
2023/04/05 05:52:14;;;;;;;35.50;13.70;;;;;;;-1.73;75.30;100915.06;110462;1263;23068;-58
2023/04/05 05:54:46;;;;;;;34.10;14.00;;;;;;;-1.67;75.23;100918.31;110381;1267;22236;-60
2023/04/05 05:57:16;;;;;;;44.00;14.90;;;;;;;-1.59;75.11;100913.98;110462;1259;22402;-61
2023/04/05 05:59:47;;;;;;;33.70;13.50;;;;;;;-1.52;75.26;100909.27;107874;1275;25906;-60
2023/04/05 06:02:18;;;;;;;35.30;13.60;;;;;;;-1.43;75.22;100910.04;106982;1272;22575;-57
2023/04/05 06:04:49;;;;;;;36.70;13.90;;;;;;;-1.35;75.30;100907.42;106966;1275;22685;-60
2023/04/05 06:07:20;;;;;;;42.90;15.20;;;;;;;-1.28;75.46;100907.86;110495;1267;22164;-59
2023/04/05 06:09:51;;;;;;;40.40;15.50;;;;;;;-1.21;75.42;100905.94;110505;1269;22236;-60
2023/04/05 06:12:23;;;;;;;40.10;15.40;;;;;;;-1.15;75.25;100906.12;110483;1267;22355;-60
2023/04/05 06:14:54;;;;;;;38.30;15.00;;;;;;;-1.07;75.25;100898.42;110502;1275;22334;-59
2023/04/05 06:17:25;;;;;;;51.60;16.20;;;;;;;-0.98;75.39;100901.04;110526;1264;22293;-60
2023/04/05 06:19:56;;;;;;;56.10;19.20;;;;;;;-0.91;75.54;100903.97;110352;1268;186356;-59
2023/04/05 06:22:27;;;;;;;51.60;19.80;;;;;;;-0.86;75.60;100897.02;110492;1259;22241;-58
2023/04/05 06:24:58;;;;;;;57.70;19.10;;;;;;;-0.81;75.41;100902.20;110432;1267;22150;-58
2023/04/05 06:27:29;;;;;;;56.30;19.90;;;;;;;-0.75;75.52;100905.59;110480;1267;22503;-58
2023/04/05 06:30:02;;;;;;;51.30;18.10;;;;;;;-0.67;75.66;100905.07;110534;1267;22196;-61
2023/04/05 06:32:33;;;;;;;49.60;18.00;;;;;;;-0.58;75.81;100902.98;110463;1274;22204;-57
2023/04/05 06:35:05;;;;;;;44.50;17.50;;;;;;;-0.47;75.77;100901.92;110500;1272;22262;-59
2023/04/05 06:37:36;;;;;;;41.80;17.50;;;;;;;-0.37;75.43;100900.52;110477;1268;22983;-59
2023/04/05 06:40:09;;;;;;;50.30;18.80;;;;;;;-0.30;75.26;100900.77;110490;1272;22297;-58
2023/04/05 06:42:40;;;;;;;40.40;17.50;;;;;;;-0.24;75.28;100897.65;110532;1267;22162;-60
2023/04/05 06:45:12;;;;;;;44.80;17.10;;;;;;;-0.14;75.62;100900.95;110472;1267;22336;-58
2023/04/05 06:47:44;;;;;;;46.00;16.10;;;;;;;-0.04;75.69;100897.11;110540;1275;22195;-59
2023/04/05 06:50:14;;;;;;;41.20;15.80;;;;;;;0.06;75.66;100893.75;110532;1267;22373;-59
2023/04/05 06:52:45;;;;;;;39.00;15.20;;;;;;;0.17;75.80;100896.88;110490;1268;22291;-59
2023/04/05 06:55:16;;;;;;;34.70;13.50;;;;;;;0.27;75.68;100895.85;110467;1269;22578;-60
2023/04/05 06:57:47;;;;;;;43.00;15.30;;;;;;;0.36;75.62;100895.86;110469;1267;22208;-60
2023/04/05 07:00:18;;;;;;;39.90;14.70;;;;;;;0.45;75.47;100897.48;110410;1260;22328;-59
2023/04/05 07:02:49;;;;;;;38.40;15.30;;;;;;;0.54;75.09;100898.57;110453;1267;22338;-59
2023/04/05 07:05:20;;;;;;;37.60;13.40;;;;;;;0.63;74.87;100900.44;110497;1267;22192;-60
2023/04/05 07:07:52;;;;;;;40.20;12.80;;;;;;;0.73;74.72;100900.81;110464;1268;22242;-60
2023/04/05 07:10:22;;;;;;;39.10;14.20;;;;;;;0.82;74.18;100900.64;110482;1264;22373;-59
2023/04/05 07:12:56;;;;;;;37.60;12.70;;;;;;;0.89;74.24;100902.65;110515;1259;22667;-60
2023/04/05 07:15:26;;;;;;;38.30;14.40;;;;;;;0.97;74.21;100899.71;110500;1260;22455;-60
2023/04/05 07:17:57;;;;;;;46.90;14.60;;;;;;;1.07;74.20;100900.30;110528;1274;22220;-59
2023/04/05 07:20:28;;;;;;;41.10;13.90;;;;;;;1.16;73.96;100904.98;110535;1262;22233;-60
2023/04/05 07:22:59;;;;;;;46.20;14.70;;;;;;;1.23;73.75;100905.20;110468;1268;22405;-61
2023/04/05 07:25:29;;;;;;;40.30;14.80;;;;;;;1.32;73.89;100907.75;110484;1263;22113;-60
2023/04/05 07:28:00;;;;;;;32.30;10.80;;;;;;;1.41;74.03;100910.23;110531;1272;22212;-59
2023/04/05 07:30:32;;;;;;;31.00;11.70;;;;;;;1.49;73.61;100917.25;110451;1268;22545;-60
2023/04/05 07:33:02;;;;;;;35.50;12.00;;;;;;;1.55;73.48;100916.98;110477;1267;22416;-61
2023/04/05 07:35:33;;;;;;;28.40;9.70;;;;;;;1.61;73.34;100916.80;110517;1269;22289;-61
2023/04/05 07:38:04;;;;;;;28.90;8.60;;;;;;;1.66;73.33;100919.44;110473;1267;22233;-59
2023/04/05 07:40:35;;;;;;;32.00;10.70;;;;;;;1.72;73.43;100915.23;110490;1263;22511;-59
2023/04/05 07:43:06;;;;;;;27.30;8.90;;;;;;;1.80;73.57;100915.81;110489;1267;22418;-59
2023/04/05 07:45:37;;;;;;;27.50;8.30;;;;;;;1.86;73.46;100916.79;110474;1267;22353;-57
2023/04/05 07:48:08;;;;;;;28.10;9.80;;;;;;;1.89;73.13;100917.33;110484;1267;23286;-59
2023/04/05 07:50:41;;;;;;;31.50;8.80;;;;;;;1.92;73.14;100918.96;110520;1275;22181;-60
2023/04/05 07:53:11;;;;;;;29.30;8.40;;;;;;;1.93;73.18;100919.27;110518;1272;22372;-60
2023/04/05 07:55:43;;;;;;;27.90;7.90;;;;;;;1.95;73.18;100920.04;110486;1263;22443;-60
2023/04/05 07:58:15;;;;;;;30.40;8.20;;;;;;;1.93;73.11;100917.45;110461;1267;23037;-60
2023/04/05 08:00:45;;;;;;;27.90;7.90;;;;;;;1.92;73.39;100917.77;110408;1266;107304;-59
2023/04/05 08:03:16;;;;;;;24.90;6.90;;;;;;;1.92;73.52;100921.23;110456;1267;22626;-61
2023/04/05 08:05:47;;;;;;;20.10;5.50;;;;;;;1.96;73.63;100921.44;110446;1274;22294;-58
2023/04/05 08:08:18;;;;;;;23.20;6.40;;;;;;;1.99;73.21;100920.31;110513;1267;22674;-60
2023/04/05 08:10:49;;;;;;;23.30;5.20;;;;;;;2.02;73.50;100918.33;110493;1264;22347;-59
2023/04/05 08:13:20;;;;;;;20.10;4.80;;;;;;;2.06;73.14;100916.26;110491;1272;22285;-58
2023/04/05 08:15:51;;;;;;;18.80;5.10;;;;;;;2.09;72.91;100914.98;110522;1268;22398;-60
2023/04/05 08:18:22;;;;;;;18.40;4.50;;;;;;;2.17;72.86;100914.91;110505;1267;22158;-58
2023/04/05 08:20:55;;;;;;;20.10;4.50;;;;;;;2.21;72.68;100913.15;110493;1268;22171;-60
2023/04/05 08:23:27;;;;;;;19.90;4.50;;;;;;;2.27;72.67;100913.95;110495;1269;22275;-60
2023/04/05 08:25:58;;;;;;;20.00;4.50;;;;;;;2.32;72.45;100913.05;110481;1268;22352;-58
2023/04/05 08:28:29;;;;;;;14.80;2.90;;;;;;;2.35;72.41;100912.47;110520;1267;22267;-57
2023/04/05 08:31:00;;;;;;;12.80;2.50;;;;;;;2.40;72.07;100913.05;110512;1263;22209;-60
2023/04/05 08:33:34;;;;;;;14.50;2.50;;;;;;;2.50;71.97;100914.86;110513;1267;22121;-60
2023/04/05 08:36:07;;;;;;;16.50;2.90;;;;;;;2.61;71.46;100911.22;110511;1267;23062;-61
2023/04/05 08:38:38;;;;;;;18.00;3.50;;;;;;;2.66;71.01;100911.33;110541;1269;22385;-60
2023/04/05 08:41:14;;;;;;;17.60;4.00;;;;;;;2.69;71.14;100907.90;110492;1264;22195;-60
2023/04/05 08:43:57;;;;;;;18.70;4.70;;;;;;;2.75;71.09;100903.19;110486;1264;22196;-61
2023/04/05 08:46:30;;;;;;;18.00;4.10;;;;;;;2.79;71.09;100904.41;110456;1263;22218;-60
2023/04/05 08:49:04;;;;;;;22.60;3.20;;;;;;;2.85;70.91;100905.45;110459;1267;22235;-60
2023/04/05 08:51:39;;;;;;;17.10;4.20;;;;;;;2.90;70.55;100903.34;110500;1274;22265;-58
2023/04/05 08:54:10;;;;;;;18.40;5.10;;;;;;;2.93;70.31;100900.86;110474;1267;22361;-59
2023/04/05 08:56:42;;;;;;;17.30;5.00;;;;;;;2.98;70.74;100896.88;110492;1274;22120;-59
2023/04/05 08:59:16;;;;;;;13.40;3.20;;;;;;;3.09;71.10;100902.88;110421;1264;22212;-59
2023/04/05 09:01:50;;;;;;;20.10;4.50;;;;;;;3.20;70.54;100897.39;110446;1267;22284;-60
2023/04/05 09:04:24;;;;;;;21.00;4.70;;;;;;;3.29;70.59;100896.65;110476;1269;22175;-59
2023/04/05 09:06:58;;;;;;;16.90;3.50;;;;;;;3.36;70.30;100896.23;110509;1269;22383;-60
2023/04/05 09:09:35;;;;;;;18.50;3.60;;;;;;;3.41;70.07;100894.44;110497;1269;22184;-59
2023/04/05 09:12:07;;;;;;;13.70;3.00;;;;;;;3.47;70.27;100890.66;110472;1260;22344;-59
2023/04/05 09:14:40;;;;;;;15.90;3.70;;;;;;;3.54;70.24;100894.02;110474;1275;22152;-57
2023/04/05 09:17:11;;;;;;;17.40;4.00;;;;;;;3.61;70.01;100894.17;110464;1268;22237;-59
2023/04/05 09:19:42;;;;;;;18.50;3.70;;;;;;;3.69;69.98;100893.41;110523;1269;22229;-61
2023/04/05 09:22:17;;;;;;;11.20;2.40;;;;;;;3.76;69.49;100888.42;110500;1267;22921;-59
2023/04/05 09:24:48;;;;;;;17.50;3.40;;;;;;;3.84;68.87;100891.14;110480;1272;23081;-61
2023/04/05 09:27:20;;;;;;;12.40;1.50;;;;;;;3.86;67.67;100892.85;110475;1267;22179;-61
2023/04/05 09:29:52;;;;;;;8.90;1.70;;;;;;;3.86;67.59;100888.59;110495;1274;23057;-60
2023/04/05 09:32:28;;;;;;;8.60;1.40;;;;;;;3.90;67.24;100887.90;110462;1272;22586;-59
2023/04/05 09:35:02;;;;;;;9.90;1.60;;;;;;;3.98;67.71;100883.10;110520;1267;22171;-58
2023/04/05 09:37:34;;;;;;;9.60;1.60;;;;;;;4.11;67.70;100878.25;108055;1272;24188;-60
2023/04/05 09:40:08;;;;;;;6.60;1.40;;;;;;;4.26;68.01;100876.88;107078;1274;25525;-60
2023/04/05 09:42:46;;;;;;;15.90;2.00;;;;;;;4.41;67.30;100878.61;110477;1264;22310;-60
2023/04/05 09:45:18;;;;;;;12.30;3.00;;;;;;;4.47;66.63;100875.02;110432;1260;22352;-59
2023/04/05 09:47:57;;;;;;;14.00;2.80;;;;;;;4.48;66.35;100874.93;110396;1275;22205;-59
2023/04/05 09:50:28;;;;;;;16.60;2.40;;;;;;;4.46;66.16;100874.09;110454;1275;23219;-59
2023/04/05 09:53:10;;;;;;;18.20;2.60;;;;;;;4.46;66.82;100876.39;110472;1264;22252;-58
2023/04/05 09:55:41;;;;;;;11.70;2.40;;;;;;;4.50;66.97;100872.74;110454;1264;22209;-57
2023/04/05 09:58:18;;;;;;;14.50;3.30;;;;;;;4.52;66.43;100877.30;110466;1267;22187;-59
2023/04/05 10:00:53;;;;;;;14.70;2.80;;;;;;;4.53;66.52;100872.22;110396;1268;22200;-59
2023/04/05 10:03:26;;;;;;;13.40;2.00;;;;;;;4.55;66.20;100872.60;110406;1267;23258;-59
2023/04/05 10:05:58;;;;;;;10.90;2.30;;;;;;;4.55;65.18;100868.70;110480;1275;23421;-57
2023/04/05 10:08:29;;;;;;;11.50;1.70;;;;;;;4.54;64.80;100870.54;110428;1275;22206;-59
2023/04/05 10:11:02;;;;;;;15.50;2.20;;;;;;;4.55;64.66;100866.11;110427;1262;22150;-58
2023/04/05 10:13:34;;;;;;;6.90;1.50;;;;;;;4.57;64.93;100867.73;110470;1267;23012;-57
2023/04/05 10:16:11;;;;;;;7.80;1.40;;;;;;;4.58;64.52;100867.39;110445;1269;22155;-59
2023/04/05 10:18:49;;;;;;;10.00;1.50;;;;;;;4.58;64.47;100862.33;110422;1272;22343;-59
2023/04/05 10:21:23;;;;;;;10.80;1.50;;;;;;;4.59;64.15;100862.61;110433;1267;22377;-59
2023/04/05 10:24:01;;;;;;;8.10;1.30;;;;;;;4.59;64.44;100861.43;110442;1275;22194;-59
2023/04/05 10:26:41;;;;;;;9.30;1.60;;;;;;;4.64;64.46;100859.30;110474;1275;23164;-58
2023/04/05 10:29:18;;;;;;;12.20;2.20;;;;;;;4.72;64.24;100860.73;110455;1264;22201;-59
2023/04/05 10:31:55;;;;;;;8.80;1.70;;;;;;;4.75;63.83;100858.06;110399;1269;22197;-57
2023/04/05 10:34:42;;;;;;;14.30;2.00;;;;;;;4.79;64.29;100857.29;110450;1267;22246;-59
2023/04/05 10:37:23;;;;;;;6.20;1.20;;;;;;;4.89;64.37;100852.41;110429;1264;22240;-59
2023/04/05 10:39:56;;;;;;;9.60;2.30;;;;;;;5.00;64.09;100845.96;106798;1269;24188;-58
2023/04/05 10:42:34;;;;;;;8.50;1.80;;;;;;;5.05;63.90;100844.72;106225;1259;22545;-56
2023/04/05 10:45:10;;;;;;;10.30;2.30;;;;;;;5.11;64.05;100839.63;110449;1260;22504;-59
2023/04/05 10:47:47;;;;;;;16.90;2.10;;;;;;;5.19;64.32;100835.67;110435;1271;22116;-59
2023/04/05 10:50:22;;;;;;;12.90;2.20;;;;;;;5.30;64.08;100835.34;110471;1269;22436;-59
2023/04/05 10:52:55;;;;;;;11.60;2.60;;;;;;;5.41;64.02;100832.33;110428;1269;23049;-58
2023/04/05 10:55:26;;;;;;;13.10;2.60;;;;;;;5.53;63.80;100832.67;110453;1265;22279;-59
2023/04/05 10:57:58;;;;;;;12.60;2.20;;;;;;;5.65;63.64;100829.40;110456;1265;22401;-59
2023/04/05 11:00:30;;;;;;;11.10;2.10;;;;;;;5.70;63.05;100824.44;110284;1269;185805;-59
2023/04/05 11:03:01;;;;;;;11.90;2.00;;;;;;;5.78;63.33;100826.58;110457;1267;23006;-59
2023/04/05 11:05:34;;;;;;;12.10;2.40;;;;;;;5.88;63.29;100821.45;110425;1274;23115;-58
2023/04/05 11:08:07;;;;;;;12.10;2.40;;;;;;;5.94;62.87;100820.18;110431;1272;22208;-59
2023/04/05 11:10:39;;;;;;;10.60;2.90;;;;;;;5.96;62.54;100816.73;110450;1264;22456;-58
2023/04/05 11:13:11;;;;;;;14.60;3.40;;;;;;;5.96;62.87;100817.14;110433;1269;23124;-59
2023/04/05 11:15:42;;;;;;;12.10;3.00;;;;;;;5.95;62.51;100822.85;110455;1267;22202;-59
2023/04/05 11:18:22;;;;;;;13.90;2.70;;;;;;;5.87;62.04;100816.48;110383;1256;22202;-59
2023/04/05 11:21:05;;;;;;;15.50;2.50;;;;;;;5.76;62.00;100817.27;110429;1269;22237;-59
2023/04/05 11:24:06;;;;;;;10.70;2.70;;;;;;;5.71;62.17;100820.77;110439;1272;22347;-60
2023/04/05 11:26:55;;;;;;;12.70;3.10;;;;;;;5.64;62.21;100817.30;110466;1267;22190;-58
2023/04/05 11:29:49;;;;;;;11.20;2.80;;;;;;;5.63;62.55;100820.51;110437;1274;22225;-58
2023/04/05 11:32:21;;;;;;;11.40;2.50;;;;;;;5.58;61.93;100819.03;110428;1269;22426;-57
2023/04/05 11:35:06;;;;;;;14.80;2.70;;;;;;;5.54;62.43;100819.86;110419;1269;22118;-59